createdAt,value
2023-03-12T00:02:09.386Z,99759.00
2023-03-12T00:04:37.511Z,99750.00
2023-03-12T00:07:06.823Z,99752.00
2023-03-12T00:09:38.385Z,99759.00
2023-03-12T00:12:06.645Z,99754.00
2023-03-12T00:14:34.486Z,99768.00
2023-03-12T00:17:02.390Z,99762.00
2023-03-12T00:19:30.187Z,99763.00
2023-03-12T00:21:58.101Z,99755.00
2023-03-12T00:24:26.065Z,99763.00
2023-03-12T00:26:53.776Z,99755.00
2023-03-12T00:29:21.664Z,99762.00
2023-03-12T00:31:49.536Z,99769.00
2023-03-12T00:34:17.632Z,99759.00
2023-03-12T00:36:45.541Z,99766.00
2023-03-12T00:39:13.617Z,99761.00
2023-03-12T00:41:41.568Z,99769.00
2023-03-12T00:44:09.313Z,99765.00
2023-03-12T00:46:37.425Z,99770.00
2023-03-12T00:49:05.366Z,99769.00
2023-03-12T00:51:33.189Z,99765.00
2023-03-12T00:54:00.972Z,99768.00
2023-03-12T00:56:31.092Z,99756.00
2023-03-12T00:58:58.842Z,99754.00
2023-03-12T01:01:27.768Z,99764.00
2023-03-12T01:03:56.068Z,99757.00
2023-03-12T01:06:23.830Z,99755.00
2023-03-12T01:08:51.723Z,99758.00
2023-03-12T01:11:20.593Z,99758.00
2023-03-12T01:13:48.861Z,99755.00
2023-03-12T01:16:16.656Z,99752.00
2023-03-12T01:18:44.572Z,99752.00
2023-03-12T01:21:12.512Z,99751.00
2023-03-12T01:23:43.000Z,99752.00
2023-03-12T01:26:10.803Z,99752.00
2023-03-12T01:28:38.871Z,99763.00
2023-03-12T01:31:10.213Z,99762.00
2023-03-12T01:33:38.317Z,99767.00
2023-03-12T01:36:06.657Z,99765.00
2023-03-12T01:38:34.408Z,99762.00
2023-03-12T01:41:02.227Z,99759.00
2023-03-12T01:43:31.915Z,99766.00
2023-03-12T01:46:03.511Z,99762.00
2023-03-12T01:49:01.587Z,99751.00
2023-03-12T01:51:32.788Z,99757.00
2023-03-12T01:54:01.800Z,99752.00
2023-03-12T01:56:32.802Z,99756.00
2023-03-12T01:59:01.698Z,99752.00
2023-03-12T02:01:29.680Z,99751.00
2023-03-12T02:03:57.655Z,99749.00
2023-03-12T02:06:45.637Z,99741.00
2023-03-12T02:09:13.424Z,99736.00
2023-03-12T02:11:41.481Z,99735.00
2023-03-12T02:14:09.276Z,99731.00
2023-03-12T02:16:37.827Z,99737.00
2023-03-12T02:19:09.301Z,99739.00
2023-03-12T02:21:37.831Z,99735.00
2023-03-12T02:24:24.342Z,99740.00
2023-03-12T02:26:52.472Z,99743.00
2023-03-12T02:29:20.186Z,99736.00
2023-03-12T02:31:49.816Z,99746.00
2023-03-12T02:34:17.606Z,99742.00
2023-03-12T02:36:45.578Z,99740.00
2023-03-12T02:39:13.588Z,99743.00
2023-03-12T02:41:42.548Z,99740.00
2023-03-12T02:44:11.997Z,99737.00
2023-03-12T02:46:47.493Z,99739.00
2023-03-12T02:49:15.790Z,99743.00
2023-03-12T02:51:44.273Z,99739.00
2023-03-12T02:54:12.888Z,99741.00
2023-03-12T02:56:41.071Z,99737.00
2023-03-12T02:59:09.299Z,99747.00
2023-03-12T03:01:40.938Z,99746.00
2023-03-12T03:04:10.065Z,99751.00
2023-03-12T03:06:38.496Z,99750.00
2023-03-12T03:09:06.321Z,99753.00
2023-03-12T03:11:34.165Z,99746.00
2023-03-12T03:14:04.589Z,99749.00
2023-03-12T03:16:33.219Z,99743.00
2023-03-12T03:19:00.829Z,99749.00
2023-03-12T03:21:28.581Z,99742.00
2023-03-12T03:23:56.289Z,99744.00
2023-03-12T03:26:24.552Z,99745.00
2023-03-12T03:28:53.306Z,99741.00
2023-03-12T03:31:21.266Z,99748.00
2023-03-12T03:33:49.383Z,99733.00
2023-03-12T03:36:17.375Z,99740.00
2023-03-12T03:38:53.862Z,99742.00
2023-03-12T03:41:21.770Z,99734.00
2023-03-12T03:43:49.528Z,99739.00
2023-03-12T03:46:20.206Z,99734.00
2023-03-12T03:48:53.289Z,99736.00
2023-03-12T03:51:22.540Z,99739.00
2023-03-12T03:53:54.874Z,99740.00
2023-03-12T03:56:22.844Z,99736.00
2023-03-12T03:58:51.406Z,99740.00
2023-03-12T04:01:21.370Z,99746.00
2023-03-12T04:03:50.376Z,99752.00
2023-03-12T04:06:18.224Z,99750.00
2023-03-12T04:08:45.787Z,99746.00
2023-03-12T04:11:16.992Z,99752.00
2023-03-12T04:13:45.108Z,99750.00
2023-03-12T04:16:15.604Z,99753.00
2023-03-12T04:18:43.607Z,99745.00
2023-03-12T04:21:12.575Z,99746.00
2023-03-12T04:23:41.326Z,99752.00
2023-03-12T04:26:10.466Z,99748.00
2023-03-12T04:28:38.352Z,99751.00
2023-03-12T04:31:07.494Z,99749.00
2023-03-12T04:33:39.728Z,99753.00
2023-03-12T04:36:08.799Z,99745.00
2023-03-12T04:38:39.159Z,99745.00
2023-03-12T04:41:09.244Z,99751.00
2023-03-12T04:43:39.253Z,99743.00
2023-03-12T04:46:07.119Z,99745.00
2023-03-12T04:48:35.556Z,99745.00
2023-03-12T04:51:03.721Z,99747.00
2023-03-12T04:53:31.627Z,99750.00
2023-03-12T04:56:00.022Z,99746.00
2023-03-12T04:58:29.742Z,99741.00
2023-03-12T05:00:57.640Z,99746.00
2023-03-12T05:03:25.641Z,99742.00
2023-03-12T05:05:53.558Z,99741.00
2023-03-12T05:08:21.318Z,99742.00
2023-03-12T05:10:49.050Z,99747.00
2023-03-12T05:13:22.425Z,99746.00
2023-03-12T05:15:52.824Z,99751.00
2023-03-12T05:18:22.097Z,99748.00
2023-03-12T05:21:07.615Z,99743.00
2023-03-12T05:23:36.040Z,99749.00
2023-03-12T05:26:03.888Z,99749.00
2023-03-12T05:28:34.925Z,99751.00
2023-03-12T05:31:08.385Z,99752.00
2023-03-12T05:33:36.229Z,99756.00
2023-03-12T05:36:05.347Z,99749.00
2023-03-12T05:38:33.787Z,99749.00
2023-03-12T05:41:01.755Z,99749.00
2023-03-12T05:43:32.492Z,99747.00
2023-03-12T05:46:04.126Z,99735.00
2023-03-12T05:48:33.604Z,99742.00
2023-03-12T05:51:02.499Z,99745.00
2023-03-12T05:53:31.020Z,99737.00
2023-03-12T05:56:05.481Z,99740.00
2023-03-12T05:58:33.760Z,99749.00
2023-03-12T06:01:01.874Z,99747.00
2023-03-12T06:03:29.565Z,99747.00
2023-03-12T06:05:57.463Z,99734.00
2023-03-12T06:08:25.266Z,99745.00
2023-03-12T06:10:55.192Z,99731.00
2023-03-12T06:13:25.473Z,99733.00
2023-03-12T06:15:53.239Z,99737.00
2023-03-12T06:18:21.069Z,99735.00
2023-03-12T06:20:51.087Z,99734.00
2023-03-12T06:23:21.531Z,99730.00
2023-03-12T06:25:49.695Z,99728.00
2023-03-12T06:28:17.444Z,99717.00
2023-03-12T06:30:45.378Z,99733.00
2023-03-12T06:33:13.192Z,99730.00
2023-03-12T06:35:42.236Z,99725.00
2023-03-12T06:38:10.097Z,99732.00
2023-03-12T06:40:38.149Z,99726.00
2023-03-12T06:43:12.312Z,99723.00
2023-03-12T06:45:40.059Z,99726.00
2023-03-12T06:48:07.906Z,99723.00
2023-03-12T06:50:36.037Z,99724.00
2023-03-12T06:53:03.732Z,99725.00
2023-03-12T06:55:31.404Z,99711.00
2023-03-12T06:57:59.154Z,99718.00
2023-03-12T07:00:28.248Z,99710.00
2023-03-12T07:02:55.941Z,99710.00
2023-03-12T07:05:24.138Z,99702.00
2023-03-12T07:07:51.793Z,99696.00
2023-03-12T07:10:19.605Z,99700.00
2023-03-12T07:12:47.333Z,99707.00
2023-03-12T07:15:15.214Z,99704.00
2023-03-12T07:17:43.050Z,99695.00
2023-03-12T07:20:10.957Z,99711.00
2023-03-12T07:22:38.733Z,99705.00
2023-03-12T07:25:06.612Z,99708.00
2023-03-12T07:27:34.417Z,99710.00
2023-03-12T07:30:02.115Z,99707.00
2023-03-12T07:32:29.953Z,99713.00
2023-03-12T07:34:57.697Z,99704.00
2023-03-12T07:37:25.345Z,99705.00
2023-03-12T07:39:54.913Z,99693.00
2023-03-12T07:42:22.698Z,99694.00
2023-03-12T07:44:50.648Z,99699.00
2023-03-12T07:47:24.184Z,99699.00
2023-03-12T07:49:52.342Z,99695.00
2023-03-12T07:52:20.535Z,99695.00
2023-03-12T07:54:49.024Z,99695.00
2023-03-12T07:57:17.413Z,99694.00
2023-03-12T07:59:45.318Z,99686.00
2023-03-12T08:02:13.247Z,99688.00
2023-03-12T08:04:41.155Z,99683.00
2023-03-12T08:07:09.465Z,99683.00
2023-03-12T08:09:38.976Z,99682.00
2023-03-12T08:12:07.120Z,99683.00
2023-03-12T08:14:35.274Z,99683.00
2023-03-12T08:17:03.033Z,99680.00
2023-03-12T08:19:31.180Z,99686.00
2023-03-12T08:21:58.749Z,99678.00
2023-03-12T08:24:26.311Z,99680.00
2023-03-12T08:26:54.046Z,99678.00
2023-03-12T08:29:21.713Z,99686.00
2023-03-12T08:32:03.768Z,99679.00
2023-03-12T08:34:32.331Z,99679.00
2023-03-12T08:37:00.128Z,99675.00
2023-03-12T08:39:27.799Z,99682.00
2023-03-12T08:41:55.624Z,99686.00
2023-03-12T08:44:23.632Z,99667.00
2023-03-12T08:46:51.833Z,99666.00
2023-03-12T08:49:22.368Z,99659.00
2023-03-12T08:51:51.914Z,99647.00
2023-03-12T08:54:20.009Z,99647.00
2023-03-12T08:56:52.211Z,99645.00
2023-03-12T08:59:23.618Z,99647.00
2023-03-12T09:01:51.304Z,99639.00
2023-03-12T09:04:18.965Z,99640.00
2023-03-12T09:06:46.878Z,99644.00
2023-03-12T09:09:15.041Z,99647.00
2023-03-12T09:11:42.948Z,99653.00
2023-03-12T09:16:58.639Z,99660.00
2023-03-12T09:19:26.521Z,99652.00
2023-03-12T09:21:54.279Z,99653.00
2023-03-12T09:24:22.129Z,99652.00
2023-03-12T09:26:49.913Z,99653.00
2023-03-12T09:29:17.546Z,99651.00
2023-03-12T09:31:45.216Z,99653.00
2023-03-12T09:34:12.834Z,99649.00
2023-03-12T09:36:40.490Z,99650.00
2023-03-12T09:39:08.297Z,99642.00
2023-03-12T09:41:39.135Z,99633.00
2023-03-12T09:44:09.547Z,99643.00
2023-03-12T09:46:38.689Z,99638.00
2023-03-12T09:49:06.981Z,99638.00
2023-03-12T09:51:49.485Z,99638.00
2023-03-12T09:54:23.384Z,99640.00
2023-03-12T09:56:51.485Z,99644.00
2023-03-12T09:59:19.116Z,99643.00
2023-03-12T10:01:51.701Z,99645.00
2023-03-12T10:04:22.189Z,99640.00
2023-03-12T10:06:53.148Z,99637.00
2023-03-12T10:09:34.925Z,99635.00
2023-03-12T10:12:21.467Z,99626.00
2023-03-12T10:15:01.493Z,99617.00
2023-03-12T10:17:29.288Z,99610.00
2023-03-12T10:19:59.880Z,99605.00
2023-03-12T10:22:46.559Z,99606.00
2023-03-12T10:25:17.009Z,99612.00
2023-03-12T10:27:44.701Z,99609.00
2023-03-12T10:30:20.911Z,99605.00
2023-03-12T10:32:58.922Z,99580.00
2023-03-12T10:35:28.165Z,99576.00
2023-03-12T10:38:00.996Z,99572.00
2023-03-12T10:40:30.039Z,99560.00
2023-03-12T10:42:58.029Z,99552.00
2023-03-12T10:45:33.055Z,99563.00
2023-03-12T10:48:04.808Z,99568.00
2023-03-12T10:50:33.995Z,99564.00
2023-03-12T10:53:20.709Z,99568.00
2023-03-12T10:56:07.810Z,99566.00
2023-03-12T10:58:35.531Z,99564.00
2023-03-12T11:01:03.960Z,99561.00
2023-03-12T11:03:32.229Z,99552.00
2023-03-12T11:06:00.758Z,99536.00
2023-03-12T11:08:33.007Z,99542.00
2023-03-12T11:11:01.225Z,99537.00
2023-03-12T11:13:30.502Z,99542.00
2023-03-12T11:16:21.339Z,99533.00
2023-03-12T11:19:03.898Z,99525.00
2023-03-12T11:21:32.396Z,99514.00
2023-03-12T11:24:00.143Z,99503.00
2023-03-12T11:26:32.180Z,99509.00
2023-03-12T11:29:01.945Z,99509.00
2023-03-12T11:31:31.282Z,99498.00
2023-03-12T11:34:00.373Z,99493.00
2023-03-12T11:36:30.981Z,99497.00
2023-03-12T11:39:21.668Z,99495.00
2023-03-12T11:42:08.542Z,99495.00
2023-03-12T11:44:48.064Z,99495.00
2023-03-12T11:47:15.911Z,99482.00
2023-03-12T11:49:49.766Z,99474.00
2023-03-12T11:52:36.547Z,99481.00
2023-03-12T11:55:10.428Z,99478.00
2023-03-12T11:57:52.925Z,99475.00
2023-03-12T12:00:34.420Z,99477.00
2023-03-12T12:03:08.252Z,99478.00
2023-03-12T12:05:36.019Z,99468.00
2023-03-12T12:08:16.597Z,99457.00
2023-03-12T12:11:03.067Z,99441.00
2023-03-12T12:13:39.822Z,99439.00
2023-03-12T12:16:07.581Z,99435.00
2023-03-12T12:18:54.093Z,99429.00
2023-03-12T12:21:35.402Z,99433.00
2023-03-12T12:24:18.062Z,99427.00
2023-03-12T12:26:54.990Z,99423.00
2023-03-12T12:29:28.450Z,99424.00
2023-03-12T12:31:57.216Z,99419.00
2023-03-12T12:34:35.823Z,99408.00
2023-03-12T12:37:03.838Z,99394.00
2023-03-12T12:39:33.490Z,99386.00
2023-03-12T12:42:03.400Z,99383.00
2023-03-12T12:44:39.162Z,99378.00
2023-03-12T12:47:07.168Z,99360.00
2023-03-12T12:49:44.696Z,99352.00
2023-03-12T12:52:16.612Z,99351.00
2023-03-12T12:54:56.611Z,99354.00
2023-03-12T12:57:26.362Z,99351.00
2023-03-12T13:00:05.219Z,99359.00
2023-03-12T13:02:34.212Z,99355.00
2023-03-12T13:05:01.935Z,99356.00
2023-03-12T13:07:30.871Z,99355.00
2023-03-12T13:09:58.875Z,99357.00
2023-03-12T13:12:45.256Z,99351.00
2023-03-12T13:15:31.368Z,99345.00
2023-03-12T13:17:59.065Z,99347.00
2023-03-12T13:20:31.848Z,99344.00
2023-03-12T13:23:04.342Z,99333.00
2023-03-12T13:25:39.380Z,99341.00
2023-03-12T13:28:25.899Z,99332.00
2023-03-12T13:30:54.021Z,99326.00
2023-03-12T13:33:39.762Z,99328.00
2023-03-12T13:36:16.566Z,99324.00
2023-03-12T13:38:54.675Z,99313.00
2023-03-12T13:41:36.770Z,99330.00
2023-03-12T13:44:22.944Z,99328.00
2023-03-12T13:47:09.204Z,99326.00
2023-03-12T13:49:46.023Z,99323.00
2023-03-12T13:52:32.333Z,99315.00
2023-03-12T13:55:15.122Z,99312.00
2023-03-12T13:57:46.420Z,99310.00
2023-03-12T14:00:30.456Z,99294.00
2023-03-12T14:03:00.049Z,99296.00
2023-03-12T14:05:27.999Z,99295.00
2023-03-12T14:07:56.191Z,99287.00
2023-03-12T14:10:33.007Z,99283.00
2023-03-12T14:13:00.903Z,99280.00
2023-03-12T14:15:28.765Z,99279.00
2023-03-12T14:17:58.019Z,99281.00
2023-03-12T14:20:26.033Z,99276.00
2023-03-12T14:23:01.053Z,99279.00
2023-03-12T14:25:38.545Z,99279.00
2023-03-12T14:28:26.582Z,99286.00
2023-03-12T14:31:01.563Z,99285.00
2023-03-12T14:33:45.842Z,99282.00
2023-03-12T14:36:15.262Z,99266.00
2023-03-12T14:38:44.212Z,99261.00
2023-03-12T14:41:14.837Z,99263.00
2023-03-12T14:43:43.895Z,99261.00
2023-03-12T14:46:15.811Z,99268.00
2023-03-12T14:48:44.264Z,99264.00
2023-03-12T14:51:20.009Z,99258.00
2023-03-12T14:53:49.203Z,99256.00
2023-03-12T14:56:32.793Z,99257.00
2023-03-12T14:59:05.037Z,99242.00
2023-03-12T15:01:33.661Z,99254.00
2023-03-12T15:04:02.326Z,99238.00
2023-03-12T15:06:29.935Z,99241.00
2023-03-12T15:08:57.928Z,99239.00
2023-03-12T15:11:26.219Z,99221.00
2023-03-12T15:13:54.388Z,99227.00
2023-03-12T15:16:22.496Z,99229.00
2023-03-12T15:18:50.374Z,99222.00
2023-03-12T15:21:18.076Z,99220.00
2023-03-12T15:23:46.187Z,99219.00
2023-03-12T15:26:14.148Z,99224.00
2023-03-12T15:28:42.317Z,99224.00
2023-03-12T15:31:17.010Z,99226.00
2023-03-12T15:33:45.073Z,99227.00
2023-03-12T15:36:17.317Z,99223.00
2023-03-12T15:39:06.158Z,99216.00
2023-03-12T15:41:43.941Z,99217.00
2023-03-12T15:44:19.125Z,99213.00
2023-03-12T15:46:51.031Z,99212.00
2023-03-12T15:49:23.604Z,99196.00
2023-03-12T15:51:58.300Z,99205.00
2023-03-12T15:54:27.427Z,99194.00
2023-03-12T15:56:55.793Z,99198.00
2023-03-12T15:59:27.474Z,99203.00
2023-03-12T16:01:56.405Z,99198.00
2023-03-12T16:04:24.804Z,99205.00
2023-03-12T16:06:53.632Z,99198.00
2023-03-12T16:09:26.344Z,99202.00
2023-03-12T16:11:54.378Z,99203.00
2023-03-12T16:14:29.605Z,99220.00
2023-03-12T16:16:57.360Z,99201.00
2023-03-12T16:19:27.316Z,99190.00
2023-03-12T16:21:55.117Z,99199.00
2023-03-12T16:24:22.788Z,99208.00
2023-03-12T16:26:50.639Z,99216.00
2023-03-12T16:29:18.830Z,99217.00
2023-03-12T16:31:53.751Z,99203.00
2023-03-12T16:34:21.587Z,99216.00
2023-03-12T16:36:49.215Z,99203.00
2023-03-12T16:39:18.735Z,99212.00
2023-03-12T16:41:47.064Z,99219.00
2023-03-12T16:44:16.118Z,99213.00
2023-03-12T16:46:43.808Z,99219.00
2023-03-12T16:49:14.855Z,99216.00
2023-03-12T16:51:42.575Z,99209.00
2023-03-12T16:54:12.031Z,99210.00
2023-03-12T16:56:44.133Z,99210.00
2023-03-12T16:59:19.080Z,99216.00
2023-03-12T17:01:46.845Z,99220.00
2023-03-12T17:04:15.178Z,99223.00
2023-03-12T17:06:42.747Z,99222.00
2023-03-12T17:09:10.370Z,99231.00
2023-03-12T17:11:38.130Z,99224.00
2023-03-12T17:14:10.817Z,99234.00
2023-03-12T17:16:38.551Z,99237.00
2023-03-12T17:19:06.309Z,99238.00
2023-03-12T17:21:34.123Z,99230.00
2023-03-12T17:24:01.696Z,99230.00
2023-03-12T17:26:29.278Z,99234.00
2023-03-12T17:28:59.353Z,99242.00
2023-03-12T17:31:27.135Z,99234.00
2023-03-12T17:33:55.009Z,99234.00
2023-03-12T17:36:22.843Z,99234.00
2023-03-12T17:38:51.144Z,99248.00
2023-03-12T17:41:26.504Z,99241.00
2023-03-12T17:43:55.281Z,99254.00
2023-03-12T17:46:23.135Z,99251.00
2023-03-12T17:48:50.954Z,99247.00
2023-03-12T17:51:18.807Z,99245.00
2023-03-12T17:53:46.677Z,99245.00
2023-03-12T17:56:18.126Z,99243.00
2023-03-12T17:58:45.829Z,99241.00
2023-03-12T18:01:13.952Z,99250.00
2023-03-12T18:03:44.139Z,99249.00
2023-03-12T18:06:12.096Z,99250.00
2023-03-12T18:08:39.812Z,99259.00
2023-03-12T18:11:07.606Z,99267.00
2023-03-12T18:13:35.417Z,99253.00
2023-03-12T18:16:03.386Z,99254.00
2023-03-12T18:18:31.341Z,99248.00
2023-03-12T18:20:59.154Z,99257.00
2023-03-12T18:23:28.177Z,99250.00
2023-03-12T18:25:56.013Z,99251.00
2023-03-12T18:28:24.366Z,99253.00
2023-03-12T18:30:52.063Z,99250.00
2023-03-12T18:33:19.792Z,99254.00
2023-03-12T18:35:47.528Z,99268.00
2023-03-12T18:38:15.398Z,99269.00
2023-03-12T18:40:43.014Z,99264.00
2023-03-12T18:43:10.835Z,99261.00
2023-03-12T18:45:41.222Z,99272.00
2023-03-12T18:48:08.902Z,99275.00
2023-03-12T18:50:37.701Z,99279.00
2023-03-12T18:53:05.321Z,99276.00
2023-03-12T18:55:33.055Z,99273.00
2023-03-12T18:58:00.793Z,99262.00
2023-03-12T19:00:28.596Z,99274.00
2023-03-12T19:02:56.338Z,99273.00
2023-03-12T19:05:23.940Z,99276.00
2023-03-12T19:07:51.565Z,99287.00
2023-03-12T19:10:19.323Z,99284.00
2023-03-12T19:12:53.289Z,99282.00
2023-03-12T19:15:22.163Z,99288.00
2023-03-12T19:17:50.442Z,99284.00
2023-03-12T19:20:18.361Z,99285.00
2023-03-12T19:22:45.957Z,99278.00
2023-03-12T19:25:14.068Z,99278.00
2023-03-12T19:27:42.005Z,99282.00
2023-03-12T19:30:09.995Z,99289.00
2023-03-12T19:32:43.774Z,99281.00
2023-03-12T19:35:12.365Z,99287.00
2023-03-12T19:37:40.105Z,99289.00
2023-03-12T19:40:08.515Z,99286.00
2023-03-12T19:42:36.314Z,99290.00
2023-03-12T19:45:04.258Z,99286.00
2023-03-12T19:47:33.411Z,99291.00
2023-03-12T19:50:00.979Z,99287.00
2023-03-12T19:52:29.074Z,99285.00
2023-03-12T19:55:04.739Z,99297.00
2023-03-12T19:57:33.750Z,99293.00
2023-03-12T20:00:01.466Z,99290.00
2023-03-12T20:02:32.013Z,99289.00
2023-03-12T20:04:59.774Z,99284.00
2023-03-12T20:07:27.654Z,99286.00
2023-03-12T20:09:55.458Z,99287.00
2023-03-12T20:12:23.340Z,99285.00
2023-03-12T20:14:51.223Z,99277.00
2023-03-12T20:17:19.133Z,99281.00
2023-03-12T20:19:46.817Z,99276.00
2023-03-12T20:22:14.603Z,99266.00
2023-03-12T20:24:42.342Z,99264.00
2023-03-12T20:27:10.047Z,99253.00
2023-03-12T20:29:37.854Z,99256.00
2023-03-12T20:32:05.597Z,99249.00
2023-03-12T20:34:33.316Z,99254.00
2023-03-12T20:37:01.025Z,99249.00
2023-03-12T20:39:28.783Z,99247.00
2023-03-12T20:41:56.415Z,99241.00
2023-03-12T20:44:24.293Z,99245.00
2023-03-12T20:46:52.075Z,99244.00
2023-03-12T20:49:19.851Z,99242.00
2023-03-12T20:51:47.631Z,99241.00
2023-03-12T20:54:15.386Z,99243.00
2023-03-12T20:56:43.906Z,99248.00
2023-03-12T20:59:12.204Z,99246.00
2023-03-12T21:01:40.028Z,99246.00
2023-03-12T21:04:07.953Z,99252.00
2023-03-12T21:06:35.960Z,99252.00
2023-03-12T21:09:03.879Z,99263.00
2023-03-12T21:11:31.549Z,99262.00
2023-03-12T21:13:59.321Z,99257.00
2023-03-12T21:16:27.289Z,99273.00
2023-03-12T21:18:55.463Z,99267.00
2023-03-12T21:21:23.312Z,99275.00
2023-03-12T21:23:51.178Z,99265.00
2023-03-12T21:26:19.364Z,99269.00
2023-03-12T21:28:47.080Z,99264.00
2023-03-12T21:31:15.840Z,99262.00
2023-03-12T21:33:43.614Z,99249.00
2023-03-12T21:36:12.098Z,99256.00
2023-03-12T21:38:40.223Z,99250.00
2023-03-12T21:41:08.877Z,99249.00
2023-03-12T21:43:37.091Z,99248.00
2023-03-12T21:46:05.774Z,99248.00
2023-03-12T21:48:33.661Z,99253.00
2023-03-12T21:51:04.847Z,99244.00
2023-03-12T21:53:32.653Z,99251.00
2023-03-12T21:56:01.256Z,99249.00
2023-03-12T21:58:29.764Z,99242.00
2023-03-12T22:01:11.362Z,99249.00
2023-03-12T22:03:39.262Z,99237.00
2023-03-12T22:06:07.272Z,99239.00
2023-03-12T22:08:35.149Z,99229.00
2023-03-12T22:11:03.353Z,99228.00
2023-03-12T22:13:30.992Z,99229.00
2023-03-12T22:15:59.850Z,99223.00
2023-03-12T22:18:28.357Z,99218.00
2023-03-12T22:20:56.879Z,99224.00
2023-03-12T22:23:25.557Z,99218.00
2023-03-12T22:25:53.303Z,99218.00
2023-03-12T22:28:21.088Z,99218.00
2023-03-12T22:30:48.962Z,99214.00
2023-03-12T22:33:16.548Z,99213.00
2023-03-12T22:35:48.003Z,99208.00
2023-03-12T22:38:15.714Z,99197.00
2023-03-12T22:40:43.520Z,99202.00
2023-03-12T22:43:11.069Z,99201.00
2023-03-12T22:45:38.758Z,99200.00
2023-03-12T22:48:06.673Z,99203.00
2023-03-12T22:50:34.501Z,99196.00
2023-03-12T22:53:02.428Z,99198.00
2023-03-12T22:55:30.158Z,99199.00
2023-03-12T22:57:57.984Z,99190.00
2023-03-12T23:00:27.093Z,99204.00
2023-03-12T23:02:54.892Z,99193.00
2023-03-12T23:05:22.577Z,99181.00
2023-03-12T23:07:50.299Z,99194.00
2023-03-12T23:10:18.108Z,99183.00
2023-03-12T23:12:45.856Z,99189.00
2023-03-12T23:15:14.838Z,99188.00
2023-03-12T23:17:42.445Z,99183.00
2023-03-12T23:20:10.352Z,99170.00
2023-03-12T23:22:38.117Z,99172.00
2023-03-12T23:25:06.190Z,99169.00
2023-03-12T23:27:34.279Z,99165.00
2023-03-12T23:30:02.320Z,99160.00
2023-03-12T23:32:30.091Z,99159.00
2023-03-12T23:34:57.687Z,99163.00
2023-03-12T23:37:25.431Z,99158.00
2023-03-12T23:39:55.077Z,99156.00
2023-03-12T23:42:22.944Z,99143.00
2023-03-12T23:44:50.690Z,99147.00
2023-03-12T23:47:18.510Z,99148.00
2023-03-12T23:49:46.213Z,99150.00
2023-03-12T23:52:13.915Z,99142.00
2023-03-12T23:54:41.743Z,99137.00
2023-03-12T23:57:09.344Z,99132.00
2023-03-12T23:59:36.913Z,99129.00
